Time;durP1;ratioP1;P1;durP2;ratioP2;P2;SDS_P1;SDS_P2;PMS_P1;PMS_P2;Temp;Humidity;BMP_temperature;BMP_pressure;BME280_temperature;BME280_humidity;BME280_pressure;Samples;Min_cycle;Max_cycle;Signal;HPM_P1;HPM_P2
2022/05/26 00:00:55;;;;;;;5.73;2.43;;;;;;;17.80;50.55;99215.16;6947552;28;20317;-77
2022/05/26 00:04:17;;;;;;;3.63;1.90;;;;;;;18.07;48.79;99202.63;6947000;28;20308;-78
2022/05/26 00:07:38;;;;;;;5.60;1.90;;;;;;;18.16;48.86;99216.72;6946246;28;20311;-77
2022/05/26 00:11:02;;;;;;;3.23;2.10;;;;;;;17.92;48.89;99223.34;6931627;28;20687;-77
2022/05/26 00:14:23;;;;;;;2.47;1.80;;;;;;;17.80;49.34;99234.25;6925158;28;20200;-78
2022/05/26 00:17:45;;;;;;;2.10;1.70;;;;;;;18.23;48.61;99222.84;6946401;28;20273;-78
2022/05/26 00:21:07;;;;;;;2.00;1.80;;;;;;;17.98;49.43;99233.28;6947339;28;20558;-78
2022/05/26 00:24:28;;;;;;;1.77;1.60;;;;;;;17.98;48.61;99223.19;6923603;28;20274;-78
2022/05/26 00:27:51;;;;;;;4.87;2.00;;;;;;;18.07;49.01;99232.66;6933397;28;20285;-77
2022/05/26 00:31:13;;;;;;;2.40;2.00;;;;;;;18.01;49.60;99232.78;6920313;28;20235;-78
2022/05/26 00:34:35;;;;;;;2.20;2.00;;;;;;;17.99;49.64;99224.81;6946400;28;20211;-78
2022/05/26 00:37:56;;;;;;;1.90;1.70;;;;;;;17.82;49.89;99231.28;6946710;28;20244;-78
2022/05/26 00:41:18;;;;;;;2.47;1.87;;;;;;;18.17;49.11;99234.75;6949583;28;20215;-78
2022/05/26 00:44:42;;;;;;;2.10;1.80;;;;;;;18.33;48.92;99231.28;6948415;28;20694;-77
2022/05/26 00:48:07;;;;;;;2.53;1.90;;;;;;;17.74;49.95;99209.88;6944901;28;20250;-77
2022/05/26 00:51:31;;;;;;;1.70;1.60;;;;;;;17.04;51.68;99233.56;6945695;28;20203;-77
2022/05/26 00:54:54;;;;;;;3.00;1.70;;;;;;;17.86;50.06;99216.94;6946700;28;20207;-78
2022/05/26 00:58:18;;;;;;;1.90;1.70;;;;;;;17.92;49.96;99224.13;6945978;28;20309;-78
2022/05/26 01:01:41;;;;;;;1.90;1.80;;;;;;;17.91;50.22;99225.22;6946266;28;20257;-77
2022/05/26 01:05:09;;;;;;;2.03;1.70;;;;;;;17.79;50.32;99227.16;6944981;28;20368;-77
2022/05/26 01:08:36;;;;;;;4.10;1.90;;;;;;;17.65;50.70;99223.03;6946056;28;20234;-78
2022/05/26 01:11:57;;;;;;;2.67;1.90;;;;;;;17.31;51.51;99195.78;6941254;28;20553;-78
2022/05/26 01:15:21;;;;;;;2.53;1.93;;;;;;;17.84;50.56;99231.88;6930936;28;20294;-77
2022/05/26 01:18:51;;;;;;;3.67;1.77;;;;;;;18.05;50.23;99228.50;6946296;28;20691;-78
2022/05/26 01:22:28;;;;;;;2.60;2.37;;;;;;;18.29;48.96;99225.41;6945981;28;20277;-78
2022/05/26 01:26:20;;;;;;;5.37;2.43;;;;;;;18.15;49.82;99225.94;6934494;28;20294;-77
2022/05/26 01:30:17;;;;;;;3.53;2.50;;;;;;;17.96;49.41;99221.75;6945762;28;20581;-77
2022/05/26 01:33:44;;;;;;;3.93;2.63;;;;;;;17.72;50.31;99226.47;6940557;28;20203;-77
2022/05/26 01:37:12;;;;;;;2.73;2.10;;;;;;;17.39;51.81;99228.16;6945753;28;20212;-77
2022/05/26 01:40:37;;;;;;;2.53;2.10;;;;;;;17.60;50.65;99222.09;6947023;28;20252;-78
2022/05/26 01:44:05;;;;;;;4.77;2.33;;;;;;;16.34;54.83;99231.72;6946803;28;20215;-78
2022/05/26 01:47:35;;;;;;;3.20;2.20;;;;;;;17.01;52.55;99219.59;6946237;28;20230;-77
2022/05/26 01:51:02;;;;;;;4.13;2.07;;;;;;;17.34;52.14;99228.84;6947387;28;20236;-77
2022/05/26 01:54:30;;;;;;;2.50;2.30;;;;;;;16.24;54.47;99226.03;6921632;28;20695;-78
2022/05/26 01:57:55;;;;;;;2.63;1.90;;;;;;;16.91;53.15;99238.41;6946070;28;20213;-78
2022/05/26 02:01:19;;;;;;;2.30;2.00;;;;;;;16.73;52.78;99193.06;6944130;28;20190;-78
2022/05/26 02:04:43;;;;;;;1.83;1.73;;;;;;;16.36;54.25;99234.22;6924241;28;20227;-78
2022/05/26 02:08:11;;;;;;;3.03;2.10;;;;;;;16.59;54.05;99237.06;6943249;28;20674;-77
2022/05/26 02:11:34;;;;;;;3.70;2.47;;;;;;;16.67;53.23;99240.28;6949367;28;20637;-78
2022/05/26 02:15:00;;;;;;;1.97;1.87;;;;;;;16.79;53.14;99243.84;6949239;28;20584;-78
2022/05/26 02:18:24;;;;;;;2.00;1.90;;;;;;;16.30;54.34;99227.00;6948982;28;20225;-78
2022/05/26 02:21:49;;;;;;;4.33;2.20;;;;;;;16.67;53.58;99245.72;6951186;28;20733;-78
2022/05/26 02:25:16;;;;;;;2.90;2.07;;;;;;;16.57;53.29;99237.28;6951116;28;20248;-77
2022/05/26 02:32:13;;;;;;;2.17;1.93;;;;;;;16.34;53.60;99239.09;6949344;28;20205;-77
2022/05/26 02:35:37;;;;;;;2.10;2.00;;;;;;;16.87;52.76;99243.50;6941269;28;20545;-78
2022/05/26 02:38:59;;;;;;;3.37;2.03;;;;;;;16.65;52.98;99217.91;6938003;28;20260;-77
2022/05/26 02:42:24;;;;;;;3.53;2.13;;;;;;;16.14;53.35;99190.38;6958499;28;20541;-77
2022/05/26 02:45:53;;;;;;;3.00;2.20;;;;;;;16.56;53.40;99234.78;6930451;28;20213;-77
2022/05/26 02:49:24;;;;;;;1.90;1.80;;;;;;;15.50;55.77;99217.38;6948504;28;20223;-77
2022/05/26 02:52:55;;;;;;;2.77;2.20;;;;;;;16.02;54.58;99233.03;6949076;28;20207;-77
2022/05/26 02:56:25;;;;;;;3.93;2.13;;;;;;;16.54;53.12;99213.25;6947913;28;20208;-77
2022/05/26 02:59:56;;;;;;;3.23;2.00;;;;;;;16.57;53.44;99233.75;6947993;28;20237;-77
2022/05/26 03:03:22;;;;;;;1.90;1.73;;;;;;;16.62;52.59;99242.03;6935766;28;20234;-77
2022/05/26 03:06:47;;;;;;;3.43;2.13;;;;;;;15.93;55.29;99241.75;6936555;28;20301;-77
2022/05/26 03:10:09;;;;;;;2.43;1.90;;;;;;;16.07;54.63;99241.34;6948791;28;20287;-77
2022/05/26 03:13:31;;;;;;;2.07;1.80;;;;;;;16.27;53.78;99246.53;6947929;28;20329;-77
2022/05/26 03:16:54;;;;;;;6.27;1.90;;;;;;;15.97;54.59;99260.09;6942057;28;20209;-77
2022/05/26 03:20:16;;;;;;;5.03;2.03;;;;;;;15.81;55.10;99260.69;6949093;28;20220;-77
2022/05/26 03:23:39;;;;;;;4.97;2.00;;;;;;;16.28;53.62;99246.25;6949190;28;20240;-77
2022/05/26 03:27:00;;;;;;;3.50;1.90;;;;;;;16.34;53.32;99256.22;6948481;28;20676;-77
2022/05/26 03:30:22;;;;;;;2.10;1.90;;;;;;;15.59;55.09;99232.31;6948109;28;20318;-77
2022/05/26 03:41:03;;;;;;;2.53;2.13;;;;;;;16.21;54.25;99269.22;6948495;28;20221;-77
2022/05/26 03:44:25;;;;;;;2.43;2.23;;;;;;;15.99;54.66;99257.16;6948146;28;20258;-77
2022/05/26 03:47:47;;;;;;;3.63;2.27;;;;;;;16.33;53.60;99248.31;6925890;28;20216;-77
2022/05/26 03:51:10;;;;;;;3.57;2.10;;;;;;;16.16;53.81;99258.19;6920347;28;20225;-78
2022/05/26 03:54:33;;;;;;;3.87;2.13;;;;;;;16.11;54.41;99255.31;6942467;28;20243;-78
2022/05/26 03:57:55;;;;;;;2.37;2.17;;;;;;;16.11;54.21;99263.47;6946978;28;20237;-78
2022/05/26 04:01:17;;;;;;;2.70;2.03;;;;;;;15.89;54.57;99267.72;6948013;28;20247;-77
2022/05/26 04:04:38;;;;;;;2.30;2.00;;;;;;;16.01;54.40;99246.84;6946875;28;20225;-77
2022/05/26 04:08:01;;;;;;;2.30;2.10;;;;;;;16.25;54.05;99275.81;6946107;28;20250;-77
2022/05/26 04:11:24;;;;;;;2.03;1.93;;;;;;;16.17;54.27;99252.47;6919384;28;20215;-77
2022/05/26 04:14:48;;;;;;;4.20;1.90;;;;;;;16.08;54.25;99236.72;6919987;28;20283;-77
2022/05/26 04:18:10;;;;;;;2.30;2.10;;;;;;;15.74;55.12;99273.53;6942764;28;20251;-77
2022/05/26 04:21:31;;;;;;;2.90;1.97;;;;;;;16.46;53.41;99300.69;6946130;28;20206;-77
2022/05/26 04:24:57;;;;;;;2.27;2.10;;;;;;;16.50;53.04;99311.94;6946356;28;20237;-77
2022/05/26 04:28:19;;;;;;;3.83;2.17;;;;;;;16.12;54.23;99298.63;6930022;28;20223;-77
2022/05/26 04:31:40;;;;;;;2.50;2.10;;;;;;;15.60;56.15;99307.38;6946236;28;20204;-77
2022/05/26 04:35:02;;;;;;;2.47;1.90;;;;;;;16.70;53.53;99304.34;6946820;28;20622;-78
2022/05/26 04:38:24;;;;;;;4.10;2.17;;;;;;;16.44;53.47;99304.69;6962323;28;20221;-78
2022/05/26 04:41:47;;;;;;;2.13;1.93;;;;;;;16.71;53.38;99311.44;6952675;28;20319;-77
2022/05/26 04:45:12;;;;;;;2.43;2.23;;;;;;;16.83;53.26;99320.47;6946209;28;20369;-78
2022/05/26 04:48:34;;;;;;;2.13;1.77;;;;;;;17.11;52.39;99299.69;6946142;28;20229;-78
2022/05/26 04:51:56;;;;;;;3.77;2.00;;;;;;;17.95;51.04;99299.22;6946940;28;20657;-79
2022/05/26 04:55:18;;;;;;;4.50;2.17;;;;;;;18.36;49.68;99318.13;6930035;28;20628;-78
2022/05/26 04:58:41;;;;;;;2.10;1.90;;;;;;;18.54;49.60;99317.94;6946128;28;20223;-78
2022/05/26 05:02:02;;;;;;;3.47;2.00;;;;;;;18.35;49.66;99313.75;6946809;28;20793;-78
2022/05/26 05:05:24;;;;;;;7.90;1.90;;;;;;;19.28;47.70;99321.25;6945948;28;20372;-78
2022/05/26 05:08:46;;;;;;;1.73;1.60;;;;;;;20.14;44.17;99306.97;6946475;28;20227;-79
2022/05/26 05:12:09;;;;;;;1.63;1.37;;;;;;;20.05;45.12;99333.91;6948807;28;20362;-79
2022/05/26 05:15:36;;;;;;;1.33;1.20;;;;;;;20.90;43.48;99328.72;6948045;28;20218;-79
2022/05/26 05:18:58;;;;;;;2.10;1.47;;;;;;;21.17;42.01;99308.41;6948110;28;20215;-79
2022/05/26 05:22:22;;;;;;;1.27;1.10;;;;;;;21.24;41.38;99337.28;6948271;28;20228;-79
2022/05/26 05:25:47;;;;;;;1.40;1.30;;;;;;;20.95;42.70;99332.34;6947983;28;20310;-79
2022/05/26 05:29:11;;;;;;;2.97;1.10;;;;;;;21.25;41.20;99349.91;6947773;28;20321;-79
2022/05/26 05:32:39;;;;;;;1.43;1.13;;;;;;;21.73;41.01;99327.81;6949041;28;20626;-77
2022/05/26 05:36:05;;;;;;;2.20;1.20;;;;;;;22.71;39.17;99319.56;6949435;28;20256;-79
2022/05/26 05:39:27;;;;;;;1.43;1.10;;;;;;;22.51;37.74;99332.41;6954229;28;20219;-79
2022/05/26 05:42:49;;;;;;;3.57;1.37;;;;;;;22.30;39.53;99309.47;6954122;28;20250;-79
2022/05/26 05:46:11;;;;;;;6.00;1.37;;;;;;;22.48;38.40;99336.50;6953310;28;20643;-79
2022/05/26 05:49:35;;;;;;;1.30;1.20;;;;;;;23.56;37.10;99338.97;6953488;28;20716;-79
2022/05/26 05:52:57;;;;;;;3.00;1.60;;;;;;;23.50;36.94;99342.81;6954698;28;20233;-79
2022/05/26 05:56:18;;;;;;;1.07;1.03;;;;;;;23.06;36.60;99338.88;6955103;28;20217;-79
2022/05/26 05:59:40;;;;;;;1.73;1.30;;;;;;;22.87;36.96;99345.16;6950693;28;20237;-78
2022/05/26 06:03:01;;;;;;;1.23;1.13;;;;;;;22.97;36.88;99348.78;6950809;28;20303;-83
2022/05/26 06:06:24;;;;;;;2.73;1.50;;;;;;;22.99;36.78;99348.50;6936850;28;20236;-78
2022/05/26 06:09:47;;;;;;;1.33;1.17;;;;;;;22.43;37.75;99360.41;6923624;28;20244;-78
2022/05/26 06:13:08;;;;;;;2.23;1.07;;;;;;;22.77;37.40;99361.66;6932668;28;20227;-79
2022/05/26 06:16:32;;;;;;;2.93;1.30;;;;;;;22.76;37.13;99325.06;6953371;28;20198;-79
2022/05/26 06:19:54;;;;;;;2.70;1.20;;;;;;;23.28;36.69;99349.66;6955618;28;20226;-79
2022/05/26 06:23:20;;;;;;;2.80;1.23;;;;;;;23.30;37.18;99334.53;6953395;28;20219;-78
2022/05/26 06:26:42;;;;;;;2.57;1.07;;;;;;;23.23;36.40;99364.25;6938063;28;20221;-79
2022/05/26 06:30:04;;;;;;;3.00;1.23;;;;;;;22.58;37.68;99368.72;6945678;28;20316;-78
2022/05/26 06:37:14;;;;;;;2.63;1.10;;;;;;;22.84;38.15;99354.78;6954100;28;20260;-79
2022/05/26 06:40:37;;;;;;;2.37;1.23;;;;;;;22.78;38.70;99371.56;6959700;28;20226;-80
2022/05/26 06:43:59;;;;;;;2.70;1.00;;;;;;;23.00;38.46;99383.16;6953383;28;20226;-79
2022/05/26 06:47:22;;;;;;;1.30;1.20;;;;;;;22.67;38.59;99373.41;6946364;28;20219;-79
2022/05/26 06:50:44;;;;;;;2.67;1.20;;;;;;;23.13;37.23;99361.44;6958327;28;20235;-79
2022/05/26 06:54:06;;;;;;;3.57;0.93;;;;;;;23.04;36.88;99376.84;6961249;28;20205;-84
2022/05/26 06:57:29;;;;;;;1.90;1.30;;;;;;;22.88;38.00;99399.06;6950209;28;20241;-77
2022/05/26 07:00:50;;;;;;;1.53;1.13;;;;;;;23.44;37.19;99392.63;6949793;28;20248;-78
2022/05/26 07:04:12;;;;;;;1.70;1.30;;;;;;;23.42;38.22;99395.66;6948955;28;20364;-79
2022/05/26 07:07:35;;;;;;;1.60;1.07;;;;;;;22.64;36.79;99397.88;6944146;28;20714;-79
2022/05/26 07:11:00;;;;;;;3.93;1.23;;;;;;;22.63;37.63;99402.56;6929209;28;20230;-80
2022/05/26 07:14:23;;;;;;;2.03;1.40;;;;;;;22.25;37.47;99389.13;6942146;28;20221;-80
2022/05/26 07:17:45;;;;;;;1.40;1.10;;;;;;;22.39;37.54;99389.47;6948185;28;20577;-78
2022/05/26 07:21:08;;;;;;;7.47;6.70;;;;;;;23.24;36.48;99409.13;6949881;28;20220;-79
2022/05/26 07:24:29;;;;;;;2.10;1.40;;;;;;;23.40;36.99;99411.63;6948754;28;20264;-80
2022/05/26 07:27:53;;;;;;;2.70;1.10;;;;;;;23.15;36.72;99414.28;6951060;28;20200;-79
2022/05/26 07:31:16;;;;;;;1.67;1.20;;;;;;;22.88;37.40;99419.16;6950185;28;20222;-85
2022/05/26 07:34:37;;;;;;;3.33;1.10;;;;;;;23.36;36.52;99409.69;6947839;28;20276;-80
2022/05/26 07:41:39;;;;;;;3.53;1.00;;;;;;;24.16;34.94;99421.56;6922731;28;20193;-79
2022/05/26 07:45:17;;;;;;;1.60;1.30;;;;;;;23.79;35.50;99411.91;6941189;28;20234;-80
2022/05/26 07:48:39;;;;;;;2.47;1.10;;;;;;;24.94;34.00;99417.19;6864775;28;20233;-80
2022/05/26 07:52:02;;;;;;;1.20;1.10;;;;;;;25.00;34.35;99396.75;6838643;29;20202;-79
2022/05/26 07:55:23;;;;;;;1.30;1.00;;;;;;;24.40;34.24;99414.34;6839031;28;20234;-80
2022/05/26 07:58:47;;;;;;;1.17;0.90;;;;;;;24.48;33.89;99418.47;6865054;28;20220;-82
2022/05/26 08:02:09;;;;;;;1.97;0.90;;;;;;;24.43;33.90;99429.50;6864790;28;20217;-80
2022/05/26 08:05:32;;;;;;;1.13;1.00;;;;;;;24.22;34.45;99414.09;6865754;28;20715;-79
2022/05/26 08:08:54;;;;;;;1.27;1.00;;;;;;;24.28;34.35;99408.31;6863392;28;20263;-80
2022/05/26 08:12:16;;;;;;;1.37;0.93;;;;;;;24.48;34.44;99435.00;6855000;28;20254;-79
2022/05/26 08:15:37;;;;;;;1.07;0.97;;;;;;;24.72;33.45;99433.31;6865049;28;20213;-80
2022/05/26 08:18:59;;;;;;;2.13;0.90;;;;;;;24.40;33.75;99428.13;6863647;28;20228;-80
2022/05/26 08:22:22;;;;;;;0.90;0.90;;;;;;;24.51;34.06;99431.69;6864565;28;20310;-79
2022/05/26 08:25:43;;;;;;;0.70;0.70;;;;;;;24.31;33.91;99431.75;6915715;28;20222;-79
2022/05/26 08:29:05;;;;;;;2.20;1.20;;;;;;;24.14;34.15;99425.69;6948697;28;20226;-79
2022/05/26 08:32:27;;;;;;;2.60;0.80;;;;;;;24.33;33.82;99429.53;6939275;28;20671;-80
2022/05/26 08:35:48;;;;;;;1.00;0.90;;;;;;;24.46;34.91;99446.31;6948481;28;20213;-80
2022/05/26 08:39:11;;;;;;;3.77;0.93;;;;;;;24.12;34.24;99450.78;6948626;28;20288;-79
2022/05/26 08:42:35;;;;;;;1.77;1.03;;;;;;;23.58;35.64;99444.13;6949248;28;20669;-80
2022/05/26 08:45:57;;;;;;;1.43;0.87;;;;;;;23.44;36.07;99465.03;6948588;28;20230;-80
2022/05/26 08:49:24;;;;;;;2.27;1.10;;;;;;;23.62;35.33;99452.66;6947656;28;20231;-80
2022/05/26 08:52:49;;;;;;;1.50;1.00;;;;;;;23.42;36.25;99458.16;6949178;28;20628;-80
2022/05/26 08:56:16;;;;;;;1.03;0.93;;;;;;;23.92;35.21;99456.31;6948746;28;20207;-80
2022/05/26 08:59:40;;;;;;;1.50;1.00;;;;;;;23.74;35.55;99465.06;6945044;28;20788;-81
2022/05/26 09:03:03;;;;;;;1.23;0.90;;;;;;;23.48;35.55;99452.34;6942702;28;20211;-80
2022/05/26 09:06:25;;;;;;;2.23;0.90;;;;;;;23.56;35.92;99467.53;6947909;28;20234;-79
2022/05/26 09:13:32;;;;;;;2.10;1.10;;;;;;;24.09;34.64;99464.28;6952450;28;20250;-80
2022/05/26 09:16:58;;;;;;;2.37;1.53;;;;;;;23.94;35.02;99461.50;6954089;28;20203;-80
2022/05/26 09:20:35;;;;;;;3.33;1.27;;;;;;;24.47;34.69;99471.94;6954151;28;20707;-80
2022/05/26 09:24:16;;;;;;;1.83;0.97;;;;;;;25.21;33.52;99454.34;6954552;28;20220;-80
2022/05/26 09:27:38;;;;;;;1.80;1.20;;;;;;;24.91;33.35;99460.00;6954211;28;20194;-80
2022/05/26 09:31:31;;;;;;;1.33;1.23;;;;;;;24.55;34.33;99472.19;6954206;28;20228;-80
2022/05/26 09:35:03;;;;;;;1.50;1.17;;;;;;;25.03;33.57;99470.72;6954809;28;20571;-79
2022/05/26 09:38:32;;;;;;;1.17;0.90;;;;;;;25.36;33.94;99467.28;6954517;28;20751;-80
2022/05/26 09:41:56;;;;;;;2.60;1.33;;;;;;;24.67;33.81;99445.16;6954933;28;20194;-79
2022/05/26 09:45:18;;;;;;;1.53;1.10;;;;;;;25.28;33.43;99465.09;6954681;28;20292;-80
2022/05/26 09:48:43;;;;;;;1.23;1.13;;;;;;;24.43;34.30;99463.41;6954093;28;20224;-79
2022/05/26 09:52:17;;;;;;;3.17;1.40;;;;;;;24.10;35.13;99476.94;6954633;28;20206;-79
2022/05/26 09:55:46;;;;;;;1.50;1.10;;;;;;;24.47;34.59;99485.72;6953978;28;20278;-80
2022/05/26 09:59:24;;;;;;;1.20;1.07;;;;;;;24.55;34.04;99483.22;6953215;28;20234;-80
2022/05/26 10:02:47;;;;;;;2.40;1.07;;;;;;;24.33;35.09;99479.13;6953992;28;20684;-80
2022/05/26 10:06:17;;;;;;;2.30;1.43;;;;;;;24.46;34.25;99482.16;6954001;28;20227;-79
2022/05/26 10:09:43;;;;;;;2.90;1.00;;;;;;;24.12;35.31;99480.28;6955662;28;20301;-80
2022/05/26 10:13:22;;;;;;;1.67;1.13;;;;;;;23.96;35.18;99473.09;6955611;28;20725;-80
2022/05/26 10:16:48;;;;;;;3.13;1.20;;;;;;;23.95;35.56;99490.75;6953438;28;20197;-80
2022/05/26 10:20:19;;;;;;;1.67;1.40;;;;;;;23.90;36.00;99497.06;6952622;28;20240;-80
2022/05/26 10:24:02;;;;;;;4.10;1.40;;;;;;;23.94;36.36;99476.13;6952288;28;20215;-80
2022/05/26 10:27:42;;;;;;;1.73;1.10;;;;;;;24.02;36.62;99488.53;6952817;28;20670;-80
2022/05/26 10:31:13;;;;;;;3.87;1.60;;;;;;;24.24;36.13;99494.59;6952390;28;20235;-80
2022/05/26 10:34:48;;;;;;;1.57;1.13;;;;;;;24.01;36.09;99497.91;6952866;28;20228;-80
2022/05/26 10:38:24;;;;;;;1.47;0.97;;;;;;;24.36;35.90;99495.13;6952117;28;20213;-80
2022/05/26 10:41:52;;;;;;;1.30;1.20;;;;;;;24.27;35.44;99496.78;6951986;28;20194;-80
2022/05/26 10:45:17;;;;;;;6.67;1.60;;;;;;;23.81;36.11;99487.66;6951570;28;20244;-80
2022/05/26 10:48:42;;;;;;;1.77;1.40;;;;;;;24.28;35.46;99488.25;6952200;28;20236;-80
2022/05/26 10:52:08;;;;;;;4.60;0.90;;;;;;;24.53;35.09;99476.34;6952167;28;20207;-79
2022/05/26 10:55:37;;;;;;;1.30;1.13;;;;;;;24.74;34.81;99492.63;6952758;28;20193;-80
2022/05/26 10:59:07;;;;;;;1.40;1.20;;;;;;;24.76;34.25;99495.06;6951862;28;20239;-80
2022/05/26 11:02:34;;;;;;;1.13;1.03;;;;;;;24.60;34.34;99488.78;6952788;28;20191;-81
2022/05/26 11:06:00;;;;;;;1.13;1.00;;;;;;;24.82;33.85;99492.03;6952396;28;20218;-79
2022/05/26 11:09:27;;;;;;;2.03;0.97;;;;;;;25.14;34.26;99480.59;6952145;28;20222;-80
2022/05/26 11:12:57;;;;;;;2.90;1.20;;;;;;;24.79;34.67;99489.81;6952786;28;20192;-79
2022/05/26 11:20:09;;;;;;;1.17;1.10;;;;;;;24.62;34.96;99499.53;6950382;28;20222;-79
2022/05/26 11:23:37;;;;;;;2.93;1.17;;;;;;;24.30;34.83;99491.53;6951602;28;20223;-79
2022/05/26 11:27:03;;;;;;;1.87;1.03;;;;;;;23.43;36.32;99499.13;6951321;28;20212;-79
2022/05/26 11:38:00;;;;;;;2.03;1.83;;;;;;;24.05;36.07;99499.00;6954403;28;20242;-80
2022/05/26 11:41:27;;;;;;;1.43;1.10;;;;;;;24.19;35.77;99497.34;6959266;28;20196;-80
2022/05/26 11:44:56;;;;;;;2.23;1.30;;;;;;;24.22;35.75;99496.78;6957974;28;20261;-80
2022/05/26 11:48:40;;;;;;;1.30;1.20;;;;;;;24.37;35.90;99500.34;6949835;28;20247;-80
2022/05/26 11:52:09;;;;;;;2.27;1.20;;;;;;;24.96;34.67;99492.25;6942487;28;20233;-80
2022/05/26 11:55:33;;;;;;;1.33;1.00;;;;;;;24.91;34.83;99503.31;6945298;28;20208;-82
2022/05/26 11:59:19;;;;;;;1.20;1.00;;;;;;;25.50;34.00;99474.66;6947871;28;20316;-82
2022/05/26 12:02:42;;;;;;;2.17;1.30;;;;;;;25.43;33.67;99470.53;6948947;28;20278;-81
2022/05/26 12:06:12;;;;;;;1.13;1.03;;;;;;;24.72;33.86;99483.78;6948275;28;20220;-80
2022/05/26 12:09:46;;;;;;;2.30;1.37;;;;;;;24.91;34.13;99493.13;6948665;28;20223;-80
2022/05/26 12:13:32;;;;;;;1.47;1.30;;;;;;;24.90;33.72;99491.44;6948385;28;20349;-79
2022/05/26 12:16:54;;;;;;;4.23;1.60;;;;;;;24.61;34.66;99489.59;6945450;28;20210;-80
2022/05/26 12:20:33;;;;;;;2.00;1.27;;;;;;;24.51;34.97;99489.59;6948656;28;20229;-79
2022/05/26 12:23:55;;;;;;;1.33;1.17;;;;;;;24.78;35.01;99477.13;6936197;28;20220;-80
2022/05/26 12:31:28;;;;;;;2.50;1.37;;;;;;;25.35;33.80;99440.75;6968015;27;21105;-74
2022/05/26 12:34:58;;;;;;;2.03;1.00;;;;;;;25.19;33.63;99466.78;6949481;28;20222;-75
2022/05/26 12:38:27;;;;;;;1.63;1.10;;;;;;;25.61;33.36;99465.16;6973420;28;20208;-75
2022/05/26 12:41:52;;;;;;;3.70;1.27;;;;;;;24.99;33.97;99419.94;6976814;28;20220;-75
2022/05/26 12:45:22;;;;;;;2.17;1.40;;;;;;;25.25;33.94;99493.28;7057394;28;20208;-75
2022/05/26 12:49:01;;;;;;;3.17;1.53;;;;;;;24.83;35.70;99485.41;6970875;28;20233;-75
2022/05/26 12:52:27;;;;;;;2.43;1.40;;;;;;;23.23;37.79;99353.25;6906931;28;20608;-75
2022/05/26 12:55:58;;;;;;;2.23;1.50;;;;;;;24.27;37.32;99431.47;6914316;28;20212;-75
2022/05/26 12:59:23;;;;;;;3.17;1.50;;;;;;;24.48;37.53;99490.97;6903352;28;20211;-75
2022/05/26 13:02:50;;;;;;;2.73;2.03;;;;;;;24.73;37.47;99492.88;6933048;28;20213;-75
2022/05/26 13:06:14;;;;;;;1.90;1.70;;;;;;;24.51;37.54;99487.66;6914307;28;20654;-75
2022/05/26 13:09:42;;;;;;;2.33;2.13;;;;;;;24.01;37.65;99440.06;6913565;28;20722;-75
2022/05/26 13:13:06;;;;;;;2.73;1.70;;;;;;;24.32;37.66;99452.69;6914344;28;20660;-75
2022/05/26 13:16:31;;;;;;;2.67;1.70;;;;;;;24.87;37.75;99486.50;6913549;28;20244;-75
2022/05/26 13:19:55;;;;;;;2.43;1.90;;;;;;;24.80;37.10;99450.13;6913264;28;20210;-85
2022/05/26 13:23:28;;;;;;;3.63;1.63;;;;;;;25.16;36.58;99453.53;6914426;28;20877;-77
2022/05/26 13:27:01;;;;;;;2.80;1.30;;;;;;;26.06;35.48;99444.66;6935595;28;20575;-82
2022/05/26 13:34:05;;;;;;;4.23;1.70;;;;;;;25.36;35.80;99447.94;7051653;28;20224;-73
2022/05/26 13:37:29;;;;;;;1.93;1.70;;;;;;;25.17;36.24;99430.34;6945389;28;20584;-73
2022/05/26 13:40:52;;;;;;;6.50;1.70;;;;;;;24.94;36.34;99477.91;6909632;28;20259;-75
2022/05/26 13:44:16;;;;;;;2.30;1.27;;;;;;;25.29;35.96;99475.84;6951907;28;20219;-73
2022/05/26 13:47:40;;;;;;;2.93;1.30;;;;;;;24.96;35.39;99407.53;7035565;28;20223;-74
2022/05/26 13:51:12;;;;;;;1.93;1.60;;;;;;;25.23;35.49;99463.16;6924334;28;20224;-74
2022/05/26 13:54:38;;;;;;;2.40;1.33;;;;;;;25.41;35.94;99464.47;6906839;28;20228;-74
2022/05/26 13:58:02;;;;;;;2.60;1.50;;;;;;;25.09;35.93;99453.84;6906796;28;20213;-74
2022/05/26 14:01:25;;;;;;;2.37;1.47;;;;;;;25.16;36.33;99470.09;6909626;28;20217;-74
2022/05/26 14:04:58;;;;;;;2.33;1.40;;;;;;;25.80;35.63;99455.09;6905042;28;20201;-74
2022/05/26 14:08:23;;;;;;;2.27;1.77;;;;;;;25.68;35.85;99440.81;6916372;28;20233;-80
2022/05/26 14:11:46;;;;;;;1.50;1.40;;;;;;;25.18;35.69;99396.94;6898857;28;20254;-75
2022/05/26 14:15:11;;;;;;;2.70;1.70;;;;;;;24.98;36.06;99449.50;6907063;28;20256;-74
2022/05/26 14:18:37;;;;;;;2.10;1.40;;;;;;;25.47;35.60;99430.19;6910058;28;20234;-75
2022/05/26 14:21:59;;;;;;;2.30;1.40;;;;;;;25.02;36.01;99378.81;6911937;28;20200;-74
2022/05/26 14:25:23;;;;;;;2.17;1.60;;;;;;;25.67;35.72;99428.09;6907370;28;20216;-80
2022/05/26 14:28:45;;;;;;;1.67;1.30;;;;;;;24.33;35.55;99298.06;6902824;28;20241;-75
2022/05/26 14:32:15;;;;;;;2.47;1.60;;;;;;;24.94;35.80;99356.50;6918719;28;20563;-75
2022/05/26 14:35:37;;;;;;;4.13;1.60;;;;;;;25.77;35.67;99428.03;6894015;28;20204;-75
2022/05/26 14:38:59;;;;;;;1.40;1.30;;;;;;;25.49;35.58;99403.13;6914058;28;20576;-74
2022/05/26 14:42:30;;;;;;;1.47;1.27;;;;;;;25.57;35.67;99421.84;6904420;28;20867;-74
2022/05/26 14:45:53;;;;;;;1.43;1.33;;;;;;;25.30;35.11;99402.16;6911024;28;20299;-74
2022/05/26 14:49:17;;;;;;;1.80;1.70;;;;;;;24.54;35.86;99294.06;6904533;28;20505;-75
2022/05/26 14:52:46;;;;;;;1.93;1.40;;;;;;;25.67;34.77;99378.38;6902720;28;20229;-88
2022/05/26 14:56:07;;;;;;;2.17;1.40;;;;;;;25.40;35.65;99378.06;6906778;28;20235;-75
2022/05/26 14:59:35;;;;;;;1.90;1.37;;;;;;;24.90;35.03;99298.31;6907857;28;20231;-85
2022/05/26 15:03:05;;;;;;;2.70;1.60;;;;;;;25.20;35.27;99295.34;6899401;28;20204;-85
2022/05/26 15:06:42;;;;;;;2.53;1.60;;;;;;;26.22;34.31;99407.47;6897565;28;20224;-83
2022/05/26 15:10:10;;;;;;;2.70;1.57;;;;;;;25.73;33.75;99333.00;6911266;28;20591;-83
2022/05/26 15:13:32;;;;;;;2.13;1.60;;;;;;;26.11;33.57;99401.25;6885452;28;20270;-84
2022/05/26 15:17:00;;;;;;;1.20;1.10;;;;;;;25.16;33.86;99246.53;7021337;28;20235;-81
2022/05/26 15:20:22;;;;;;;2.90;1.70;;;;;;;25.79;34.04;99334.63;6866061;28;20237;-75
2022/05/26 15:23:45;;;;;;;3.20;1.40;;;;;;;25.50;34.44;99368.88;6867628;28;20208;-75
2022/05/26 15:27:08;;;;;;;4.53;1.57;;;;;;;26.10;33.65;99390.47;6867573;28;20265;-75
2022/05/26 15:30:30;;;;;;;1.50;1.40;;;;;;;25.79;32.47;99325.53;6912327;28;20259;-75
2022/05/26 15:33:52;;;;;;;1.87;1.30;;;;;;;25.88;32.49;99316.31;6900571;28;20680;-74
2022/05/26 15:37:14;;;;;;;3.03;1.40;;;;;;;25.57;33.25;99361.91;6894246;28;20208;-74
2022/05/26 15:40:38;;;;;;;1.23;1.13;;;;;;;25.57;32.74;99286.50;6983831;28;20227;-75
2022/05/26 15:44:00;;;;;;;2.30;1.30;;;;;;;25.99;33.17;99370.41;6934686;28;20226;-74
2022/05/26 15:47:31;;;;;;;3.13;2.60;;;;;;;25.05;34.01;99334.09;6893354;28;20211;-74
2022/05/26 15:50:53;;;;;;;2.63;2.10;;;;;;;25.79;33.13;99378.81;6891196;28;20241;-73
2022/05/26 15:54:18;;;;;;;3.53;2.40;;;;;;;25.46;33.35;99309.78;6907983;28;20215;-74
2022/05/26 15:57:42;;;;;;;1.87;1.70;;;;;;;25.23;33.84;99296.69;6913156;28;20235;-74
2022/05/26 16:01:05;;;;;;;3.30;1.90;;;;;;;25.22;35.06;99341.97;6906908;28;20311;-74
2022/05/26 16:04:27;;;;;;;1.47;1.37;;;;;;;25.41;35.09;99352.09;6905652;28;20341;-75
2022/05/26 16:07:49;;;;;;;1.97;1.70;;;;;;;25.42;34.98;99366.72;6908982;28;20237;-78
2022/05/26 16:11:15;;;;;;;3.97;1.93;;;;;;;25.38;35.75;99366.47;7033855;28;20233;-72
2022/05/26 16:14:38;;;;;;;6.30;1.93;;;;;;;24.43;37.17;99302.69;7033776;28;20206;-73
2022/05/26 16:18:04;;;;;;;2.23;2.03;;;;;;;25.00;36.57;99350.69;6999792;28;20223;-74
2022/05/26 16:21:27;;;;;;;2.00;1.70;;;;;;;24.84;35.66;99271.88;6886826;28;20198;-73
2022/05/26 16:24:50;;;;;;;1.47;1.37;;;;;;;25.86;34.70;99348.94;6916632;28;20230;-74
2022/05/26 16:28:13;;;;;;;2.83;1.60;;;;;;;25.56;34.67;99318.84;6897625;28;20742;-74
2022/05/26 16:31:38;;;;;;;2.80;1.67;;;;;;;25.36;35.01;99323.69;6912581;28;20247;-75
2022/05/26 16:38:41;;;;;;;2.50;1.50;;;;;;;25.92;34.63;99356.09;6899375;28;20212;-73
2022/05/26 16:42:11;;;;;;;4.77;2.10;;;;;;;25.15;34.39;99226.41;6892366;28;20205;-73
2022/05/26 16:45:41;;;;;;;3.63;1.50;;;;;;;25.31;34.75;99349.38;6892632;28;20248;-74
2022/05/26 16:49:04;;;;;;;2.27;2.00;;;;;;;25.74;34.71;99329.16;6893204;28;20219;-74
2022/05/26 16:52:27;;;;;;;3.70;1.67;;;;;;;26.09;34.02;99348.19;6891814;28;20211;-75